sensor_id;sensor_type;location;lat;lon;timestamp;temperature;humidity
3053;DHT22;1536;51.098;6.414;2023-07-31T00:02:07;19.10;99.90
3053;DHT22;1536;51.098;6.414;2023-07-31T00:04:34;19.10;99.90
3053;DHT22;1536;51.098;6.414;2023-07-31T00:07:01;19.10;99.90
3053;DHT22;1536;51.098;6.414;2023-07-31T00:09:32;19.10;99.90
3053;DHT22;1536;51.098;6.414;2023-07-31T00:12:00;19.00;99.90
3053;DHT22;1536;51.098;6.414;2023-07-31T00:14:27;19.00;99.90
3053;DHT22;1536;51.098;6.414;2023-07-31T00:16:54;19.00;99.90
3053;DHT22;1536;51.098;6.414;2023-07-31T00:19:22;19.00;99.90
3053;DHT22;1536;51.098;6.414;2023-07-31T00:21:49;19.00;99.90
3053;DHT22;1536;51.098;6.414;2023-07-31T00:24:18;19.00;99.90
3053;DHT22;1536;51.098;6.414;2023-07-31T00:26:47;19.00;99.90
3053;DHT22;1536;51.098;6.414;2023-07-31T00:29:14;19.00;99.90
3053;DHT22;1536;51.098;6.414;2023-07-31T00:31:41;19.00;99.90
3053;DHT22;1536;51.098;6.414;2023-07-31T00:34:09;19.10;99.90
3053;DHT22;1536;51.098;6.414;2023-07-31T00:36:38;19.00;99.90
3053;DHT22;1536;51.098;6.414;2023-07-31T00:39:06;19.00;99.90
3053;DHT22;1536;51.098;6.414;2023-07-31T00:41:33;19.00;99.90
3053;DHT22;1536;51.098;6.414;2023-07-31T00:44:00;19.00;99.90
3053;DHT22;1536;51.098;6.414;2023-07-31T00:46:27;19.00;99.90
3053;DHT22;1536;51.098;6.414;2023-07-31T00:48:55;19.00;99.90
3053;DHT22;1536;51.098;6.414;2023-07-31T00:51:22;19.00;99.90
3053;DHT22;1536;51.098;6.414;2023-07-31T00:53:51;19.00;99.90
3053;DHT22;1536;51.098;6.414;2023-07-31T00:56:21;19.00;99.90
3053;DHT22;1536;51.098;6.414;2023-07-31T00:58:48;19.00;99.90
3053;DHT22;1536;51.098;6.414;2023-07-31T01:01:15;19.00;99.90
3053;DHT22;1536;51.098;6.414;2023-07-31T01:03:43;19.00;99.90
3053;DHT22;1536;51.098;6.414;2023-07-31T01:06:29;19.00;99.90
3053;DHT22;1536;51.098;6.414;2023-07-31T01:09:03;19.00;99.90
3053;DHT22;1536;51.098;6.414;2023-07-31T01:11:37;19.00;99.90
3053;DHT22;1536;51.098;6.414;2023-07-31T01:14:05;19.00;99.90
3053;DHT22;1536;51.098;6.414;2023-07-31T01:16:33;19.00;99.90
3053;DHT22;1536;51.098;6.414;2023-07-31T01:19:01;19.00;99.90
3053;DHT22;1536;51.098;6.414;2023-07-31T01:21:56;18.90;99.90
3053;DHT22;1536;51.098;6.414;2023-07-31T01:24:36;18.90;99.90
3053;DHT22;1536;51.098;6.414;2023-07-31T01:27:12;18.90;99.90
3053;DHT22;1536;51.098;6.414;2023-07-31T01:29:49;18.90;99.90
3053;DHT22;1536;51.098;6.414;2023-07-31T01:32:19;18.90;99.90
3053;DHT22;1536;51.098;6.414;2023-07-31T01:34:54;18.90;99.90
3053;DHT22;1536;51.098;6.414;2023-07-31T01:37:22;18.90;99.90
3053;DHT22;1536;51.098;6.414;2023-07-31T01:39:54;18.90;99.90
3053;DHT22;1536;51.098;6.414;2023-07-31T01:42:24;18.90;99.90
3053;DHT22;1536;51.098;6.414;2023-07-31T01:44:51;18.90;99.90
3053;DHT22;1536;51.098;6.414;2023-07-31T01:47:18;18.90;99.90
3053;DHT22;1536;51.098;6.414;2023-07-31T01:49:45;18.90;99.90
3053;DHT22;1536;51.098;6.414;2023-07-31T01:52:11;18.80;99.90
3053;DHT22;1536;51.098;6.414;2023-07-31T01:54:38;18.80;99.90
3053;DHT22;1536;51.098;6.414;2023-07-31T01:57:06;18.80;99.90
3053;DHT22;1536;51.098;6.414;2023-07-31T01:59:34;18.80;99.90
3053;DHT22;1536;51.098;6.414;2023-07-31T02:02:01;18.90;99.90
3053;DHT22;1536;51.098;6.414;2023-07-31T02:04:27;18.90;99.90
3053;DHT22;1536;51.098;6.414;2023-07-31T02:06:54;18.90;99.90
3053;DHT22;1536;51.098;6.414;2023-07-31T02:09:21;18.90;99.90
3053;DHT22;1536;51.098;6.414;2023-07-31T02:11:48;18.90;99.90
3053;DHT22;1536;51.098;6.414;2023-07-31T02:14:14;18.90;99.90
3053;DHT22;1536;51.098;6.414;2023-07-31T02:16:42;18.90;99.90
3053;DHT22;1536;51.098;6.414;2023-07-31T02:19:09;18.90;99.90
3053;DHT22;1536;51.098;6.414;2023-07-31T02:21:36;18.90;99.90
3053;DHT22;1536;51.098;6.414;2023-07-31T02:24:03;18.90;99.90
3053;DHT22;1536;51.098;6.414;2023-07-31T02:26:31;19.00;99.90
3053;DHT22;1536;51.098;6.414;2023-07-31T02:28:58;19.00;99.90
3053;DHT22;1536;51.098;6.414;2023-07-31T02:31:25;19.00;99.90
3053;DHT22;1536;51.098;6.414;2023-07-31T02:33:53;19.00;99.90
3053;DHT22;1536;51.098;6.414;2023-07-31T02:36:21;18.90;99.90
3053;DHT22;1536;51.098;6.414;2023-07-31T02:38:48;19.00;99.90
3053;DHT22;1536;51.098;6.414;2023-07-31T02:41:15;19.00;99.90
3053;DHT22;1536;51.098;6.414;2023-07-31T02:43:42;19.00;99.90
3053;DHT22;1536;51.098;6.414;2023-07-31T02:46:08;19.00;99.90
3053;DHT22;1536;51.098;6.414;2023-07-31T02:48:35;19.00;99.90
3053;DHT22;1536;51.098;6.414;2023-07-31T02:51:03;19.00;99.90
3053;DHT22;1536;51.098;6.414;2023-07-31T02:53:30;19.00;99.90
3053;DHT22;1536;51.098;6.414;2023-07-31T02:55:57;19.10;99.90
3053;DHT22;1536;51.098;6.414;2023-07-31T02:58:24;19.00;99.90
3053;DHT22;1536;51.098;6.414;2023-07-31T03:00:50;19.10;99.90
3053;DHT22;1536;51.098;6.414;2023-07-31T03:03:17;19.10;99.90
3053;DHT22;1536;51.098;6.414;2023-07-31T03:05:44;19.00;99.90
3053;DHT22;1536;51.098;6.414;2023-07-31T03:08:12;19.10;99.90
3053;DHT22;1536;51.098;6.414;2023-07-31T03:10:39;19.00;99.90
3053;DHT22;1536;51.098;6.414;2023-07-31T03:13:06;19.00;99.90
3053;DHT22;1536;51.098;6.414;2023-07-31T03:15:33;19.10;99.90
3053;DHT22;1536;51.098;6.414;2023-07-31T03:18:00;19.10;99.90
3053;DHT22;1536;51.098;6.414;2023-07-31T03:20:27;19.10;99.90
3053;DHT22;1536;51.098;6.414;2023-07-31T03:22:54;19.10;99.90
3053;DHT22;1536;51.098;6.414;2023-07-31T03:25:22;19.10;99.90
3053;DHT22;1536;51.098;6.414;2023-07-31T03:27:49;19.10;99.90
3053;DHT22;1536;51.098;6.414;2023-07-31T03:30:16;19.10;99.90
3053;DHT22;1536;51.098;6.414;2023-07-31T03:32:43;19.10;99.90
3053;DHT22;1536;51.098;6.414;2023-07-31T03:35:10;19.10;99.90
3053;DHT22;1536;51.098;6.414;2023-07-31T03:37:36;19.10;99.90
3053;DHT22;1536;51.098;6.414;2023-07-31T03:40:04;19.10;99.90
3053;DHT22;1536;51.098;6.414;2023-07-31T03:42:32;19.10;99.90
3053;DHT22;1536;51.098;6.414;2023-07-31T03:44:59;19.10;99.90
3053;DHT22;1536;51.098;6.414;2023-07-31T03:47:26;19.10;99.90
3053;DHT22;1536;51.098;6.414;2023-07-31T03:49:53;19.10;99.90
3053;DHT22;1536;51.098;6.414;2023-07-31T03:52:19;19.10;99.90
3053;DHT22;1536;51.098;6.414;2023-07-31T03:54:46;19.10;99.90
3053;DHT22;1536;51.098;6.414;2023-07-31T03:57:13;19.10;99.90
3053;DHT22;1536;51.098;6.414;2023-07-31T03:59:41;19.10;99.90
3053;DHT22;1536;51.098;6.414;2023-07-31T04:02:08;19.10;99.90
3053;DHT22;1536;51.098;6.414;2023-07-31T04:04:35;19.10;99.90
3053;DHT22;1536;51.098;6.414;2023-07-31T04:07:02;19.10;99.90
3053;DHT22;1536;51.098;6.414;2023-07-31T04:09:29;19.10;99.90
3053;DHT22;1536;51.098;6.414;2023-07-31T04:11:56;19.10;99.90
3053;DHT22;1536;51.098;6.414;2023-07-31T04:14:23;19.20;99.90
3053;DHT22;1536;51.098;6.414;2023-07-31T04:16:54;19.20;99.90
3053;DHT22;1536;51.098;6.414;2023-07-31T04:19:21;19.20;99.90
3053;DHT22;1536;51.098;6.414;2023-07-31T04:21:48;19.10;99.90
3053;DHT22;1536;51.098;6.414;2023-07-31T04:24:14;19.20;99.90
3053;DHT22;1536;51.098;6.414;2023-07-31T04:26:47;19.20;99.90
3053;DHT22;1536;51.098;6.414;2023-07-31T04:29:14;19.20;99.90
3053;DHT22;1536;51.098;6.414;2023-07-31T04:31:41;19.20;99.90
3053;DHT22;1536;51.098;6.414;2023-07-31T04:34:09;19.20;99.90
3053;DHT22;1536;51.098;6.414;2023-07-31T04:36:37;19.20;99.90
3053;DHT22;1536;51.098;6.414;2023-07-31T04:39:04;19.20;99.90
3053;DHT22;1536;51.098;6.414;2023-07-31T04:41:31;19.20;99.90
3053;DHT22;1536;51.098;6.414;2023-07-31T04:43:59;19.20;99.90
3053;DHT22;1536;51.098;6.414;2023-07-31T04:46:25;19.20;99.90
3053;DHT22;1536;51.098;6.414;2023-07-31T04:48:52;19.30;99.90
3053;DHT22;1536;51.098;6.414;2023-07-31T04:51:20;19.20;99.90
3053;DHT22;1536;51.098;6.414;2023-07-31T04:53:48;19.20;99.90
3053;DHT22;1536;51.098;6.414;2023-07-31T04:56:16;19.30;99.90
3053;DHT22;1536;51.098;6.414;2023-07-31T04:58:42;19.30;99.90
3053;DHT22;1536;51.098;6.414;2023-07-31T05:01:09;19.30;99.90
3053;DHT22;1536;51.098;6.414;2023-07-31T05:03:36;19.30;99.90
3053;DHT22;1536;51.098;6.414;2023-07-31T05:06:04;19.30;99.90
3053;DHT22;1536;51.098;6.414;2023-07-31T05:08:32;19.30;99.90
3053;DHT22;1536;51.098;6.414;2023-07-31T05:10:59;19.30;99.90
3053;DHT22;1536;51.098;6.414;2023-07-31T05:13:26;19.30;99.90
3053;DHT22;1536;51.098;6.414;2023-07-31T05:15:52;19.30;99.90
3053;DHT22;1536;51.098;6.414;2023-07-31T05:18:19;19.30;99.90
3053;DHT22;1536;51.098;6.414;2023-07-31T05:20:46;19.30;99.90
3053;DHT22;1536;51.098;6.414;2023-07-31T05:23:13;19.30;99.90
3053;DHT22;1536;51.098;6.414;2023-07-31T05:25:41;19.30;99.90
3053;DHT22;1536;51.098;6.414;2023-07-31T05:28:08;19.40;99.90
3053;DHT22;1536;51.098;6.414;2023-07-31T05:30:34;19.30;99.90
3053;DHT22;1536;51.098;6.414;2023-07-31T05:33:01;19.40;99.90
3053;DHT22;1536;51.098;6.414;2023-07-31T05:35:28;19.40;99.90
3053;DHT22;1536;51.098;6.414;2023-07-31T05:37:55;19.40;99.90
3053;DHT22;1536;51.098;6.414;2023-07-31T05:40:21;19.40;99.90
3053;DHT22;1536;51.098;6.414;2023-07-31T05:42:50;19.40;99.90
3053;DHT22;1536;51.098;6.414;2023-07-31T05:45:16;19.40;99.90
3053;DHT22;1536;51.098;6.414;2023-07-31T05:47:43;19.40;99.90
3053;DHT22;1536;51.098;6.414;2023-07-31T05:50:10;19.40;99.90
3053;DHT22;1536;51.098;6.414;2023-07-31T05:52:38;19.40;99.90
3053;DHT22;1536;51.098;6.414;2023-07-31T05:55:06;19.40;99.90
3053;DHT22;1536;51.098;6.414;2023-07-31T05:57:33;19.40;99.90
3053;DHT22;1536;51.098;6.414;2023-07-31T06:00:05;19.30;99.90
3053;DHT22;1536;51.098;6.414;2023-07-31T06:02:35;19.40;99.90
3053;DHT22;1536;51.098;6.414;2023-07-31T06:05:03;19.30;99.90
3053;DHT22;1536;51.098;6.414;2023-07-31T06:07:31;19.30;99.90
3053;DHT22;1536;51.098;6.414;2023-07-31T06:09:58;19.30;99.90
3053;DHT22;1536;51.098;6.414;2023-07-31T06:12:29;19.30;99.90
3053;DHT22;1536;51.098;6.414;2023-07-31T06:14:56;19.30;99.90
3053;DHT22;1536;51.098;6.414;2023-07-31T06:17:24;19.30;99.90
3053;DHT22;1536;51.098;6.414;2023-07-31T06:19:52;19.30;99.90
3053;DHT22;1536;51.098;6.414;2023-07-31T06:22:20;19.30;99.90
3053;DHT22;1536;51.098;6.414;2023-07-31T06:24:47;19.40;99.90
3053;DHT22;1536;51.098;6.414;2023-07-31T06:27:14;19.40;99.90
3053;DHT22;1536;51.098;6.414;2023-07-31T06:29:41;19.40;99.90
3053;DHT22;1536;51.098;6.414;2023-07-31T06:32:09;19.40;99.90
3053;DHT22;1536;51.098;6.414;2023-07-31T06:34:39;19.50;99.90
3053;DHT22;1536;51.098;6.414;2023-07-31T06:37:06;19.50;99.90
3053;DHT22;1536;51.098;6.414;2023-07-31T06:39:33;19.50;99.90
3053;DHT22;1536;51.098;6.414;2023-07-31T06:42:00;19.50;99.90
3053;DHT22;1536;51.098;6.414;2023-07-31T06:44:29;19.50;99.90
3053;DHT22;1536;51.098;6.414;2023-07-31T06:46:57;19.60;99.90
3053;DHT22;1536;51.098;6.414;2023-07-31T06:49:24;19.50;99.90
3053;DHT22;1536;51.098;6.414;2023-07-31T06:51:53;19.50;99.90
3053;DHT22;1536;51.098;6.414;2023-07-31T06:54:23;19.50;99.90
3053;DHT22;1536;51.098;6.414;2023-07-31T06:56:50;19.50;99.90
3053;DHT22;1536;51.098;6.414;2023-07-31T06:59:18;19.50;99.90
3053;DHT22;1536;51.098;6.414;2023-07-31T07:01:54;19.50;99.90
3053;DHT22;1536;51.098;6.414;2023-07-31T07:04:21;19.50;99.90
3053;DHT22;1536;51.098;6.414;2023-07-31T07:06:49;19.50;99.90
3053;DHT22;1536;51.098;6.414;2023-07-31T07:09:18;19.50;99.90
3053;DHT22;1536;51.098;6.414;2023-07-31T07:11:45;19.50;99.90
3053;DHT22;1536;51.098;6.414;2023-07-31T07:14:12;19.50;99.90
3053;DHT22;1536;51.098;6.414;2023-07-31T07:16:38;19.50;99.90
3053;DHT22;1536;51.098;6.414;2023-07-31T07:19:06;19.50;99.90
3053;DHT22;1536;51.098;6.414;2023-07-31T07:21:33;19.50;99.90
3053;DHT22;1536;51.098;6.414;2023-07-31T07:23:59;19.50;99.90
3053;DHT22;1536;51.098;6.414;2023-07-31T07:26:27;19.50;99.90
3053;DHT22;1536;51.098;6.414;2023-07-31T07:28:54;19.50;99.90
3053;DHT22;1536;51.098;6.414;2023-07-31T07:31:21;19.50;99.90
3053;DHT22;1536;51.098;6.414;2023-07-31T07:33:48;19.50;99.90
3053;DHT22;1536;51.098;6.414;2023-07-31T07:36:14;19.50;99.90
3053;DHT22;1536;51.098;6.414;2023-07-31T07:38:41;19.50;99.90
3053;DHT22;1536;51.098;6.414;2023-07-31T07:41:08;19.50;99.90
3053;DHT22;1536;51.098;6.414;2023-07-31T07:43:36;19.40;99.90
3053;DHT22;1536;51.098;6.414;2023-07-31T07:46:02;19.40;99.90
3053;DHT22;1536;51.098;6.414;2023-07-31T07:48:29;19.40;99.90
3053;DHT22;1536;51.098;6.414;2023-07-31T07:50:56;19.50;99.90
3053;DHT22;1536;51.098;6.414;2023-07-31T07:53:23;19.50;99.90
3053;DHT22;1536;51.098;6.414;2023-07-31T07:55:49;19.50;99.90
3053;DHT22;1536;51.098;6.414;2023-07-31T07:58:16;19.50;99.90
3053;DHT22;1536;51.098;6.414;2023-07-31T08:00:51;19.50;99.90
3053;DHT22;1536;51.098;6.414;2023-07-31T08:03:20;19.50;99.90
3053;DHT22;1536;51.098;6.414;2023-07-31T08:05:47;19.50;99.90
3053;DHT22;1536;51.098;6.414;2023-07-31T08:08:15;19.50;99.90
3053;DHT22;1536;51.098;6.414;2023-07-31T08:10:45;19.40;99.90
3053;DHT22;1536;51.098;6.414;2023-07-31T08:13:12;19.40;99.90
3053;DHT22;1536;51.098;6.414;2023-07-31T08:15:41;19.40;99.90
3053;DHT22;1536;51.098;6.414;2023-07-31T08:18:12;19.40;99.90
3053;DHT22;1536;51.098;6.414;2023-07-31T08:20:39;19.40;99.90
3053;DHT22;1536;51.098;6.414;2023-07-31T08:23:06;19.40;99.90
3053;DHT22;1536;51.098;6.414;2023-07-31T08:25:34;19.40;99.90
3053;DHT22;1536;51.098;6.414;2023-07-31T08:28:02;19.40;99.90
3053;DHT22;1536;51.098;6.414;2023-07-31T08:30:29;19.40;99.90
3053;DHT22;1536;51.098;6.414;2023-07-31T08:32:56;19.50;99.90
3053;DHT22;1536;51.098;6.414;2023-07-31T08:35:26;19.50;99.90
3053;DHT22;1536;51.098;6.414;2023-07-31T08:37:53;19.60;99.90
3053;DHT22;1536;51.098;6.414;2023-07-31T08:40:22;19.60;99.90
3053;DHT22;1536;51.098;6.414;2023-07-31T08:42:51;19.60;99.90
3053;DHT22;1536;51.098;6.414;2023-07-31T08:45:19;19.60;99.90
3053;DHT22;1536;51.098;6.414;2023-07-31T08:47:47;19.60;99.90
3053;DHT22;1536;51.098;6.414;2023-07-31T08:50:16;19.60;99.90
3053;DHT22;1536;51.098;6.414;2023-07-31T08:52:46;19.60;99.90
3053;DHT22;1536;51.098;6.414;2023-07-31T08:55:13;19.60;99.90
3053;DHT22;1536;51.098;6.414;2023-07-31T08:57:42;19.60;99.90
3053;DHT22;1536;51.098;6.414;2023-07-31T09:00:10;19.60;99.90
3053;DHT22;1536;51.098;6.414;2023-07-31T09:02:45;19.60;99.90
3053;DHT22;1536;51.098;6.414;2023-07-31T09:05:12;19.60;99.90
3053;DHT22;1536;51.098;6.414;2023-07-31T09:07:40;19.60;99.90
3053;DHT22;1536;51.098;6.414;2023-07-31T09:10:13;19.70;99.90
3053;DHT22;1536;51.098;6.414;2023-07-31T09:12:40;19.70;99.90
3053;DHT22;1536;51.098;6.414;2023-07-31T09:15:08;19.80;99.90
3053;DHT22;1536;51.098;6.414;2023-07-31T09:17:37;19.80;99.90
3053;DHT22;1536;51.098;6.414;2023-07-31T09:20:13;19.80;99.90
3053;DHT22;1536;51.098;6.414;2023-07-31T09:22:42;19.80;99.90
3053;DHT22;1536;51.098;6.414;2023-07-31T09:25:17;19.90;99.90
3053;DHT22;1536;51.098;6.414;2023-07-31T09:27:53;19.80;99.90
3053;DHT22;1536;51.098;6.414;2023-07-31T09:30:21;19.90;99.90
3053;DHT22;1536;51.098;6.414;2023-07-31T09:32:49;19.90;99.90
3053;DHT22;1536;51.098;6.414;2023-07-31T09:35:19;19.90;99.90
3053;DHT22;1536;51.098;6.414;2023-07-31T09:37:51;19.90;99.90
3053;DHT22;1536;51.098;6.414;2023-07-31T09:40:30;19.90;99.90
3053;DHT22;1536;51.098;6.414;2023-07-31T09:43:01;19.90;99.90
3053;DHT22;1536;51.098;6.414;2023-07-31T09:45:34;19.90;99.90
3053;DHT22;1536;51.098;6.414;2023-07-31T09:48:08;19.90;99.90
3053;DHT22;1536;51.098;6.414;2023-07-31T09:50:46;19.90;99.90
3053;DHT22;1536;51.098;6.414;2023-07-31T09:53:13;19.90;99.90
3053;DHT22;1536;51.098;6.414;2023-07-31T09:55:43;19.90;99.90
3053;DHT22;1536;51.098;6.414;2023-07-31T09:58:17;19.90;99.90
3053;DHT22;1536;51.098;6.414;2023-07-31T10:00:44;19.90;99.90
3053;DHT22;1536;51.098;6.414;2023-07-31T10:03:14;19.90;99.90
3053;DHT22;1536;51.098;6.414;2023-07-31T10:05:44;19.90;99.90
3053;DHT22;1536;51.098;6.414;2023-07-31T10:08:17;20.00;99.90
3053;DHT22;1536;51.098;6.414;2023-07-31T10:10:48;20.00;99.90
3053;DHT22;1536;51.098;6.414;2023-07-31T10:13:16;19.90;99.90
3053;DHT22;1536;51.098;6.414;2023-07-31T10:15:44;19.90;99.90
3053;DHT22;1536;51.098;6.414;2023-07-31T10:18:12;19.90;99.90
3053;DHT22;1536;51.098;6.414;2023-07-31T10:20:41;20.00;99.90
3053;DHT22;1536;51.098;6.414;2023-07-31T10:23:08;20.00;99.90
3053;DHT22;1536;51.098;6.414;2023-07-31T10:25:39;20.10;99.90
3053;DHT22;1536;51.098;6.414;2023-07-31T10:28:08;20.10;99.90
3053;DHT22;1536;51.098;6.414;2023-07-31T10:30:52;20.20;99.90
3053;DHT22;1536;51.098;6.414;2023-07-31T10:33:36;20.20;99.90
3053;DHT22;1536;51.098;6.414;2023-07-31T10:36:13;20.20;99.90
3053;DHT22;1536;51.098;6.414;2023-07-31T10:38:42;20.20;99.90
3053;DHT22;1536;51.098;6.414;2023-07-31T10:41:12;20.20;99.90
3053;DHT22;1536;51.098;6.414;2023-07-31T10:43:47;20.20;99.90
3053;DHT22;1536;51.098;6.414;2023-07-31T10:46:14;20.20;99.90
3053;DHT22;1536;51.098;6.414;2023-07-31T10:48:42;20.20;99.90
3053;DHT22;1536;51.098;6.414;2023-07-31T10:51:10;20.20;99.90
3053;DHT22;1536;51.098;6.414;2023-07-31T10:53:40;20.20;99.90
3053;DHT22;1536;51.098;6.414;2023-07-31T10:56:08;20.30;99.90
3053;DHT22;1536;51.098;6.414;2023-07-31T10:58:38;20.30;99.90
3053;DHT22;1536;51.098;6.414;2023-07-31T11:01:06;20.40;99.90
3053;DHT22;1536;51.098;6.414;2023-07-31T11:03:44;20.50;99.90
3053;DHT22;1536;51.098;6.414;2023-07-31T11:06:13;20.50;99.90
3053;DHT22;1536;51.098;6.414;2023-07-31T11:08:44;20.60;99.90
3053;DHT22;1536;51.098;6.414;2023-07-31T11:11:13;20.60;99.90
3053;DHT22;1536;51.098;6.414;2023-07-31T11:13:43;20.70;99.90
3053;DHT22;1536;51.098;6.414;2023-07-31T11:16:13;20.70;99.90
3053;DHT22;1536;51.098;6.414;2023-07-31T11:18:40;20.70;99.90
3053;DHT22;1536;51.098;6.414;2023-07-31T11:21:08;20.70;99.90
3053;DHT22;1536;51.098;6.414;2023-07-31T11:23:37;20.80;99.90
3053;DHT22;1536;51.098;6.414;2023-07-31T11:26:05;20.80;99.90
3053;DHT22;1536;51.098;6.414;2023-07-31T11:28:35;20.80;99.90
3053;DHT22;1536;51.098;6.414;2023-07-31T11:31:02;20.80;99.90
3053;DHT22;1536;51.098;6.414;2023-07-31T11:33:31;20.80;99.90
3053;DHT22;1536;51.098;6.414;2023-07-31T11:35:57;20.90;99.90
3053;DHT22;1536;51.098;6.414;2023-07-31T11:38:25;20.80;99.90
3053;DHT22;1536;51.098;6.414;2023-07-31T11:40:53;20.80;99.90
3053;DHT22;1536;51.098;6.414;2023-07-31T11:43:20;20.90;99.90
3053;DHT22;1536;51.098;6.414;2023-07-31T11:45:48;20.90;99.90
3053;DHT22;1536;51.098;6.414;2023-07-31T11:48:19;21.00;99.90
3053;DHT22;1536;51.098;6.414;2023-07-31T11:50:50;21.00;99.90
3053;DHT22;1536;51.098;6.414;2023-07-31T11:53:20;20.90;99.90
3053;DHT22;1536;51.098;6.414;2023-07-31T11:55:49;20.90;99.90
3053;DHT22;1536;51.098;6.414;2023-07-31T11:58:16;20.80;99.90
3053;DHT22;1536;51.098;6.414;2023-07-31T12:00:44;20.80;99.90
3053;DHT22;1536;51.098;6.414;2023-07-31T12:03:11;20.80;99.90
3053;DHT22;1536;51.098;6.414;2023-07-31T12:05:38;20.80;99.90
3053;DHT22;1536;51.098;6.414;2023-07-31T12:08:10;20.80;99.90
3053;DHT22;1536;51.098;6.414;2023-07-31T12:10:38;20.80;99.90
3053;DHT22;1536;51.098;6.414;2023-07-31T12:13:09;20.80;99.90
3053;DHT22;1536;51.098;6.414;2023-07-31T12:15:54;20.80;99.90
3053;DHT22;1536;51.098;6.414;2023-07-31T12:18:22;20.70;99.90
3053;DHT22;1536;51.098;6.414;2023-07-31T12:23:44;20.80;99.90
3053;DHT22;1536;51.098;6.414;2023-07-31T12:26:17;20.80;99.90
3053;DHT22;1536;51.098;6.414;2023-07-31T12:28:46;20.90;99.90
3053;DHT22;1536;51.098;6.414;2023-07-31T12:31:14;20.90;99.90
3053;DHT22;1536;51.098;6.414;2023-07-31T12:33:46;21.00;99.90
3053;DHT22;1536;51.098;6.414;2023-07-31T12:36:23;21.10;99.90
3053;DHT22;1536;51.098;6.414;2023-07-31T12:38:55;21.10;99.90
3053;DHT22;1536;51.098;6.414;2023-07-31T12:41:24;21.20;99.90
3053;DHT22;1536;51.098;6.414;2023-07-31T12:43:51;21.20;99.90
3053;DHT22;1536;51.098;6.414;2023-07-31T12:46:17;21.30;99.90
3053;DHT22;1536;51.098;6.414;2023-07-31T12:48:44;21.40;99.90
3053;DHT22;1536;51.098;6.414;2023-07-31T12:51:11;21.40;99.90
3053;DHT22;1536;51.098;6.414;2023-07-31T12:53:38;21.40;99.90
3053;DHT22;1536;51.098;6.414;2023-07-31T12:56:06;21.30;99.90
3053;DHT22;1536;51.098;6.414;2023-07-31T12:58:33;21.30;99.90
3053;DHT22;1536;51.098;6.414;2023-07-31T13:00:59;21.20;99.90
3053;DHT22;1536;51.098;6.414;2023-07-31T13:03:27;21.30;99.90
3053;DHT22;1536;51.098;6.414;2023-07-31T13:05:54;21.30;99.90
3053;DHT22;1536;51.098;6.414;2023-07-31T13:08:21;21.30;99.90
3053;DHT22;1536;51.098;6.414;2023-07-31T13:10:47;21.40;99.90
3053;DHT22;1536;51.098;6.414;2023-07-31T13:13:15;21.40;99.90
3053;DHT22;1536;51.098;6.414;2023-07-31T13:15:43;21.50;99.90
3053;DHT22;1536;51.098;6.414;2023-07-31T13:18:10;21.50;99.90
3053;DHT22;1536;51.098;6.414;2023-07-31T13:20:37;21.60;99.90
3053;DHT22;1536;51.098;6.414;2023-07-31T13:23:04;21.60;99.90
3053;DHT22;1536;51.098;6.414;2023-07-31T13:25:30;21.70;99.90
3053;DHT22;1536;51.098;6.414;2023-07-31T13:27:57;21.70;99.90
3053;DHT22;1536;51.098;6.414;2023-07-31T13:30:25;21.80;99.90
3053;DHT22;1536;51.098;6.414;2023-07-31T13:32:52;21.80;99.90
3053;DHT22;1536;51.098;6.414;2023-07-31T13:35:19;21.90;99.90
3053;DHT22;1536;51.098;6.414;2023-07-31T13:37:46;21.90;99.90
3053;DHT22;1536;51.098;6.414;2023-07-31T13:40:13;22.00;99.90
3053;DHT22;1536;51.098;6.414;2023-07-31T13:42:39;22.00;99.90
3053;DHT22;1536;51.098;6.414;2023-07-31T13:45:06;22.00;99.90
3053;DHT22;1536;51.098;6.414;2023-07-31T13:47:34;22.00;99.90
3053;DHT22;1536;51.098;6.414;2023-07-31T13:50:02;22.00;99.90
3053;DHT22;1536;51.098;6.414;2023-07-31T13:52:29;22.00;99.90
3053;DHT22;1536;51.098;6.414;2023-07-31T13:54:56;22.00;99.90
3053;DHT22;1536;51.098;6.414;2023-07-31T13:57:23;21.90;99.90
3053;DHT22;1536;51.098;6.414;2023-07-31T13:59:50;21.80;99.90
3053;DHT22;1536;51.098;6.414;2023-07-31T14:02:16;21.80;99.90
3053;DHT22;1536;51.098;6.414;2023-07-31T14:04:44;21.70;99.90
3053;DHT22;1536;51.098;6.414;2023-07-31T14:07:11;21.60;99.90
3053;DHT22;1536;51.098;6.414;2023-07-31T14:09:38;21.60;99.90
3053;DHT22;1536;51.098;6.414;2023-07-31T14:12:05;21.50;99.90
3053;DHT22;1536;51.098;6.414;2023-07-31T14:14:32;21.40;99.90
3053;DHT22;1536;51.098;6.414;2023-07-31T14:16:59;21.40;99.90
3053;DHT22;1536;51.098;6.414;2023-07-31T14:19:26;21.30;99.90
3053;DHT22;1536;51.098;6.414;2023-07-31T14:21:54;21.20;99.90
3053;DHT22;1536;51.098;6.414;2023-07-31T14:24:21;21.20;99.90
3053;DHT22;1536;51.098;6.414;2023-07-31T14:26:48;21.20;99.90
3053;DHT22;1536;51.098;6.414;2023-07-31T14:29:14;21.20;99.90
3053;DHT22;1536;51.098;6.414;2023-07-31T14:31:41;21.20;99.90
3053;DHT22;1536;51.098;6.414;2023-07-31T14:34:08;21.20;99.90
3053;DHT22;1536;51.098;6.414;2023-07-31T14:36:34;21.20;99.90
3053;DHT22;1536;51.098;6.414;2023-07-31T14:39:03;21.20;99.90
3053;DHT22;1536;51.098;6.414;2023-07-31T14:41:29;21.30;99.90
3053;DHT22;1536;51.098;6.414;2023-07-31T14:43:56;21.30;99.90
3053;DHT22;1536;51.098;6.414;2023-07-31T14:46:23;21.30;99.90
3053;DHT22;1536;51.098;6.414;2023-07-31T14:48:50;21.30;99.90
3053;DHT22;1536;51.098;6.414;2023-07-31T14:51:16;21.20;99.90
3053;DHT22;1536;51.098;6.414;2023-07-31T14:53:43;21.20;99.90
3053;DHT22;1536;51.098;6.414;2023-07-31T14:56:11;21.20;99.90
3053;DHT22;1536;51.098;6.414;2023-07-31T14:58:38;21.20;99.90
3053;DHT22;1536;51.098;6.414;2023-07-31T15:01:05;21.20;99.90
3053;DHT22;1536;51.098;6.414;2023-07-31T15:03:32;21.30;99.90
3053;DHT22;1536;51.098;6.414;2023-07-31T15:05:58;21.30;99.90
3053;DHT22;1536;51.098;6.414;2023-07-31T15:08:25;21.30;99.90
3053;DHT22;1536;51.098;6.414;2023-07-31T15:10:52;21.30;99.90
3053;DHT22;1536;51.098;6.414;2023-07-31T15:13:24;21.20;99.90
3053;DHT22;1536;51.098;6.414;2023-07-31T15:15:50;21.20;99.90
3053;DHT22;1536;51.098;6.414;2023-07-31T15:18:18;21.20;99.90
3053;DHT22;1536;51.098;6.414;2023-07-31T15:20:53;21.20;99.90
3053;DHT22;1536;51.098;6.414;2023-07-31T15:23:20;21.20;99.90
3053;DHT22;1536;51.098;6.414;2023-07-31T15:25:46;21.20;99.90
3053;DHT22;1536;51.098;6.414;2023-07-31T15:28:13;21.10;99.90
3053;DHT22;1536;51.098;6.414;2023-07-31T15:30:41;21.20;99.90
3053;DHT22;1536;51.098;6.414;2023-07-31T15:33:08;21.20;99.90
3053;DHT22;1536;51.098;6.414;2023-07-31T15:35:35;21.20;99.90
3053;DHT22;1536;51.098;6.414;2023-07-31T15:38:01;21.20;99.90
3053;DHT22;1536;51.098;6.414;2023-07-31T15:40:28;21.20;99.90
3053;DHT22;1536;51.098;6.414;2023-07-31T15:42:55;21.10;99.90
3053;DHT22;1536;51.098;6.414;2023-07-31T15:45:22;21.10;99.90
3053;DHT22;1536;51.098;6.414;2023-07-31T15:47:50;21.10;99.90
3053;DHT22;1536;51.098;6.414;2023-07-31T15:50:16;21.10;99.90
3053;DHT22;1536;51.098;6.414;2023-07-31T15:52:43;21.10;99.90
3053;DHT22;1536;51.098;6.414;2023-07-31T15:55:10;21.10;99.90
3053;DHT22;1536;51.098;6.414;2023-07-31T15:57:37;21.00;99.90
3053;DHT22;1536;51.098;6.414;2023-07-31T16:00:05;21.00;99.90
3053;DHT22;1536;51.098;6.414;2023-07-31T16:02:34;21.00;99.90
3053;DHT22;1536;51.098;6.414;2023-07-31T16:05:04;20.90;99.90
3053;DHT22;1536;51.098;6.414;2023-07-31T16:07:31;20.90;99.90
3053;DHT22;1536;51.098;6.414;2023-07-31T16:09:58;20.90;99.90
3053;DHT22;1536;51.098;6.414;2023-07-31T16:12:24;20.90;99.90